sensor_id;sensor_type;location;lat;lon;timestamp;temperature;humidity
24217;DHT22;12356;49.386;8.688;2022-09-28T00:00:22;11.70;91.70
24217;DHT22;12356;49.386;8.688;2022-09-28T00:02:56;11.70;91.70
24217;DHT22;12356;49.386;8.688;2022-09-28T00:05:26;11.80;91.70
24217;DHT22;12356;49.386;8.688;2022-09-28T00:07:58;11.70;91.90
24217;DHT22;12356;49.386;8.688;2022-09-28T00:10:29;11.80;92.00
24217;DHT22;12356;49.386;8.688;2022-09-28T00:13:00;11.80;91.90
24217;DHT22;12356;49.386;8.688;2022-09-28T00:15:31;11.80;92.00
24217;DHT22;12356;49.386;8.688;2022-09-28T00:18:02;11.80;91.90
24217;DHT22;12356;49.386;8.688;2022-09-28T00:20:34;11.80;92.00
24217;DHT22;12356;49.386;8.688;2022-09-28T00:23:07;11.80;92.20
24217;DHT22;12356;49.386;8.688;2022-09-28T00:25:37;11.80;92.10
24217;DHT22;12356;49.386;8.688;2022-09-28T00:28:08;11.80;91.90
24217;DHT22;12356;49.386;8.688;2022-09-28T00:30:39;11.80;91.80
24217;DHT22;12356;49.386;8.688;2022-09-28T00:33:09;11.80;92.00
24217;DHT22;12356;49.386;8.688;2022-09-28T00:35:40;11.80;92.10
24217;DHT22;12356;49.386;8.688;2022-09-28T00:38:11;11.80;92.10
24217;DHT22;12356;49.386;8.688;2022-09-28T00:40:41;11.80;92.30
24217;DHT22;12356;49.386;8.688;2022-09-28T00:43:17;11.80;92.20
24217;DHT22;12356;49.386;8.688;2022-09-28T00:46:18;11.80;92.40
24217;DHT22;12356;49.386;8.688;2022-09-28T00:49:02;11.70;92.50
24217;DHT22;12356;49.386;8.688;2022-09-28T00:51:34;11.80;92.70
24217;DHT22;12356;49.386;8.688;2022-09-28T00:54:08;11.80;92.80
24217;DHT22;12356;49.386;8.688;2022-09-28T00:56:41;11.70;93.10
24217;DHT22;12356;49.386;8.688;2022-09-28T00:59:14;11.70;93.20
24217;DHT22;12356;49.386;8.688;2022-09-28T01:01:45;11.80;93.40
24217;DHT22;12356;49.386;8.688;2022-09-28T01:04:16;11.70;93.40
24217;DHT22;12356;49.386;8.688;2022-09-28T01:06:48;11.80;93.60
24217;DHT22;12356;49.386;8.688;2022-09-28T01:09:20;11.80;93.50
24217;DHT22;12356;49.386;8.688;2022-09-28T01:11:51;11.80;93.60
24217;DHT22;12356;49.386;8.688;2022-09-28T01:14:22;11.80;94.00
24217;DHT22;12356;49.386;8.688;2022-09-28T01:17:10;11.80;93.80
24217;DHT22;12356;49.386;8.688;2022-09-28T01:20:05;11.80;93.80
24217;DHT22;12356;49.386;8.688;2022-09-28T01:28:28;11.80;93.80
24217;DHT22;12356;49.386;8.688;2022-09-28T01:31:07;11.80;93.80
24217;DHT22;12356;49.386;8.688;2022-09-28T01:33:49;11.80;93.80
24217;DHT22;12356;49.386;8.688;2022-09-28T01:36:27;11.80;94.00
24217;DHT22;12356;49.386;8.688;2022-09-28T01:39:23;11.80;93.90
24217;DHT22;12356;49.386;8.688;2022-09-28T01:41:58;11.80;93.90
24217;DHT22;12356;49.386;8.688;2022-09-28T01:44:31;11.90;93.90
24217;DHT22;12356;49.386;8.688;2022-09-28T01:47:11;11.90;94.00
24217;DHT22;12356;49.386;8.688;2022-09-28T01:49:46;11.90;94.00
24217;DHT22;12356;49.386;8.688;2022-09-28T01:52:23;11.80;94.00
24217;DHT22;12356;49.386;8.688;2022-09-28T01:55:11;11.80;94.00
24217;DHT22;12356;49.386;8.688;2022-09-28T01:57:50;11.80;94.20
24217;DHT22;12356;49.386;8.688;2022-09-28T02:00:24;11.90;94.30
24217;DHT22;12356;49.386;8.688;2022-09-28T02:03:06;11.90;94.30
24217;DHT22;12356;49.386;8.688;2022-09-28T02:05:41;12.00;94.40
24217;DHT22;12356;49.386;8.688;2022-09-28T02:08:22;12.00;94.30
24217;DHT22;12356;49.386;8.688;2022-09-28T02:13:45;12.10;94.20
24217;DHT22;12356;49.386;8.688;2022-09-28T02:16:25;12.10;94.30
24217;DHT22;12356;49.386;8.688;2022-09-28T02:19:01;12.00;94.10
24217;DHT22;12356;49.386;8.688;2022-09-28T02:24:16;12.00;94.00
24217;DHT22;12356;49.386;8.688;2022-09-28T02:26:48;12.00;94.10
24217;DHT22;12356;49.386;8.688;2022-09-28T02:29:20;11.90;94.20
24217;DHT22;12356;49.386;8.688;2022-09-28T02:31:51;11.90;94.30
24217;DHT22;12356;49.386;8.688;2022-09-28T02:34:21;11.90;94.50
24217;DHT22;12356;49.386;8.688;2022-09-28T02:36:54;11.90;94.50
24217;DHT22;12356;49.386;8.688;2022-09-28T02:39:24;11.80;94.40
24217;DHT22;12356;49.386;8.688;2022-09-28T03:01:14;12.00;94.20
24217;DHT22;12356;49.386;8.688;2022-09-28T03:07:04;12.00;94.40
24217;DHT22;12356;49.386;8.688;2022-09-28T03:09:44;11.90;94.30
24217;DHT22;12356;49.386;8.688;2022-09-28T03:12:19;11.90;94.40
24217;DHT22;12356;49.386;8.688;2022-09-28T03:17:50;11.90;94.30
24217;DHT22;12356;49.386;8.688;2022-09-28T03:20:21;12.00;94.20
24217;DHT22;12356;49.386;8.688;2022-09-28T03:22:52;12.00;93.90
24217;DHT22;12356;49.386;8.688;2022-09-28T03:25:23;12.00;94.30
24217;DHT22;12356;49.386;8.688;2022-09-28T03:27:55;12.00;94.10
24217;DHT22;12356;49.386;8.688;2022-09-28T03:30:26;12.00;94.10
24217;DHT22;12356;49.386;8.688;2022-09-28T03:32:57;12.00;94.30
24217;DHT22;12356;49.386;8.688;2022-09-28T03:35:28;12.00;94.30
24217;DHT22;12356;49.386;8.688;2022-09-28T03:37:59;12.00;94.30
24217;DHT22;12356;49.386;8.688;2022-09-28T03:40:29;12.00;94.30
24217;DHT22;12356;49.386;8.688;2022-09-28T03:43:00;12.00;94.30
24217;DHT22;12356;49.386;8.688;2022-09-28T03:45:31;12.00;94.40
24217;DHT22;12356;49.386;8.688;2022-09-28T03:48:01;12.00;94.40
24217;DHT22;12356;49.386;8.688;2022-09-28T03:50:33;12.00;94.40
24217;DHT22;12356;49.386;8.688;2022-09-28T03:53:04;12.00;94.30
24217;DHT22;12356;49.386;8.688;2022-09-28T03:55:35;12.00;94.20
24217;DHT22;12356;49.386;8.688;2022-09-28T03:58:07;12.00;94.40
24217;DHT22;12356;49.386;8.688;2022-09-28T04:00:38;12.00;94.30
24217;DHT22;12356;49.386;8.688;2022-09-28T04:03:08;11.90;94.20
24217;DHT22;12356;49.386;8.688;2022-09-28T04:05:47;11.90;94.30
24217;DHT22;12356;49.386;8.688;2022-09-28T04:08:19;11.80;94.30
24217;DHT22;12356;49.386;8.688;2022-09-28T04:10:49;11.90;94.50
24217;DHT22;12356;49.386;8.688;2022-09-28T04:13:20;11.90;94.50
24217;DHT22;12356;49.386;8.688;2022-09-28T04:15:56;11.90;94.50
24217;DHT22;12356;49.386;8.688;2022-09-28T04:18:27;11.90;94.30
24217;DHT22;12356;49.386;8.688;2022-09-28T04:23:29;11.90;94.20
24217;DHT22;12356;49.386;8.688;2022-09-28T04:26:01;12.00;94.20
24217;DHT22;12356;49.386;8.688;2022-09-28T04:28:32;12.00;94.10
24217;DHT22;12356;49.386;8.688;2022-09-28T04:31:22;12.00;93.90
24217;DHT22;12356;49.386;8.688;2022-09-28T04:33:53;11.90;93.70
24217;DHT22;12356;49.386;8.688;2022-09-28T04:36:23;12.00;94.10
24217;DHT22;12356;49.386;8.688;2022-09-28T04:38:54;12.00;94.00
24217;DHT22;12356;49.386;8.688;2022-09-28T04:41:25;12.00;93.90
24217;DHT22;12356;49.386;8.688;2022-09-28T04:43:56;12.00;93.90
24217;DHT22;12356;49.386;8.688;2022-09-28T04:46:26;12.00;93.80
24217;DHT22;12356;49.386;8.688;2022-09-28T04:48:58;12.00;93.80
24217;DHT22;12356;49.386;8.688;2022-09-28T04:51:30;11.90;93.70
24217;DHT22;12356;49.386;8.688;2022-09-28T04:54:01;12.00;93.80
24217;DHT22;12356;49.386;8.688;2022-09-28T04:56:31;11.90;93.80
24217;DHT22;12356;49.386;8.688;2022-09-28T04:59:02;11.90;93.90
24217;DHT22;12356;49.386;8.688;2022-09-28T05:01:33;11.90;93.90
24217;DHT22;12356;49.386;8.688;2022-09-28T05:04:04;11.90;93.90
24217;DHT22;12356;49.386;8.688;2022-09-28T05:06:34;11.80;93.90
24217;DHT22;12356;49.386;8.688;2022-09-28T05:09:05;11.80;94.00
24217;DHT22;12356;49.386;8.688;2022-09-28T05:11:36;11.90;93.90
24217;DHT22;12356;49.386;8.688;2022-09-28T05:14:07;11.80;93.90
24217;DHT22;12356;49.386;8.688;2022-09-28T05:16:37;11.90;93.90
24217;DHT22;12356;49.386;8.688;2022-09-28T05:19:09;11.90;94.00
24217;DHT22;12356;49.386;8.688;2022-09-28T05:21:45;11.90;94.00
24217;DHT22;12356;49.386;8.688;2022-09-28T05:24:16;11.90;94.00
24217;DHT22;12356;49.386;8.688;2022-09-28T05:26:46;11.80;94.10
24217;DHT22;12356;49.386;8.688;2022-09-28T05:29:17;11.90;94.10
24217;DHT22;12356;49.386;8.688;2022-09-28T05:31:48;11.90;94.20
24217;DHT22;12356;49.386;8.688;2022-09-28T05:34:18;11.90;94.00
24217;DHT22;12356;49.386;8.688;2022-09-28T05:36:49;11.90;94.00
24217;DHT22;12356;49.386;8.688;2022-09-28T05:39:20;11.90;94.00
24217;DHT22;12356;49.386;8.688;2022-09-28T05:41:50;11.90;94.10
24217;DHT22;12356;49.386;8.688;2022-09-28T05:44:21;11.90;94.10
24217;DHT22;12356;49.386;8.688;2022-09-28T05:46:52;12.00;94.20
24217;DHT22;12356;49.386;8.688;2022-09-28T05:49:23;11.90;93.90
24217;DHT22;12356;49.386;8.688;2022-09-28T05:51:54;11.90;94.00
24217;DHT22;12356;49.386;8.688;2022-09-28T05:54:24;11.90;94.10
24217;DHT22;12356;49.386;8.688;2022-09-28T05:56:55;11.90;94.10
24217;DHT22;12356;49.386;8.688;2022-09-28T05:59:26;12.00;94.10
24217;DHT22;12356;49.386;8.688;2022-09-28T06:01:56;12.00;94.00
24217;DHT22;12356;49.386;8.688;2022-09-28T06:04:27;11.90;93.90
24217;DHT22;12356;49.386;8.688;2022-09-28T06:06:58;11.90;93.90
24217;DHT22;12356;49.386;8.688;2022-09-28T06:09:29;12.00;93.90
24217;DHT22;12356;49.386;8.688;2022-09-28T06:12:00;12.00;93.80
24217;DHT22;12356;49.386;8.688;2022-09-28T06:14:30;12.10;93.70
24217;DHT22;12356;49.386;8.688;2022-09-28T06:17:01;12.00;93.70
24217;DHT22;12356;49.386;8.688;2022-09-28T06:19:33;12.00;93.60
24217;DHT22;12356;49.386;8.688;2022-09-28T06:22:04;12.00;93.70
24217;DHT22;12356;49.386;8.688;2022-09-28T06:24:34;12.00;93.70
24217;DHT22;12356;49.386;8.688;2022-09-28T06:27:05;11.90;93.60
24217;DHT22;12356;49.386;8.688;2022-09-28T06:29:35;11.90;93.80
24217;DHT22;12356;49.386;8.688;2022-09-28T06:32:06;11.90;93.90
24217;DHT22;12356;49.386;8.688;2022-09-28T06:34:37;11.90;93.80
24217;DHT22;12356;49.386;8.688;2022-09-28T06:37:08;11.90;94.10
24217;DHT22;12356;49.386;8.688;2022-09-28T06:39:38;11.90;94.20
24217;DHT22;12356;49.386;8.688;2022-09-28T06:42:09;11.90;94.30
24217;DHT22;12356;49.386;8.688;2022-09-28T06:44:41;12.00;94.40
24217;DHT22;12356;49.386;8.688;2022-09-28T06:47:12;12.10;94.30
24217;DHT22;12356;49.386;8.688;2022-09-28T06:49:44;12.10;94.20
24217;DHT22;12356;49.386;8.688;2022-09-28T06:52:17;12.10;94.20
24217;DHT22;12356;49.386;8.688;2022-09-28T06:54:47;12.20;94.10
24217;DHT22;12356;49.386;8.688;2022-09-28T06:57:18;12.20;94.00
24217;DHT22;12356;49.386;8.688;2022-09-28T06:59:48;12.20;93.60
24217;DHT22;12356;49.386;8.688;2022-09-28T07:02:19;12.10;93.40
24217;DHT22;12356;49.386;8.688;2022-09-28T07:04:51;12.10;93.40
24217;DHT22;12356;49.386;8.688;2022-09-28T07:07:22;12.10;92.90
24217;DHT22;12356;49.386;8.688;2022-09-28T07:09:53;12.10;93.10
24217;DHT22;12356;49.386;8.688;2022-09-28T07:12:24;12.10;93.20
24217;DHT22;12356;49.386;8.688;2022-09-28T07:14:55;12.00;93.30
24217;DHT22;12356;49.386;8.688;2022-09-28T07:17:27;12.00;93.50
24217;DHT22;12356;49.386;8.688;2022-09-28T07:19:57;12.00;93.50
24217;DHT22;12356;49.386;8.688;2022-09-28T07:22:28;12.10;93.50
24217;DHT22;12356;49.386;8.688;2022-09-28T07:24:59;12.10;93.50
24217;DHT22;12356;49.386;8.688;2022-09-28T07:27:30;12.20;93.70
24217;DHT22;12356;49.386;8.688;2022-09-28T07:30:00;12.20;93.80
24217;DHT22;12356;49.386;8.688;2022-09-28T07:32:31;12.30;93.80
24217;DHT22;12356;49.386;8.688;2022-09-28T07:35:04;12.30;93.70
24217;DHT22;12356;49.386;8.688;2022-09-28T07:37:38;12.30;93.60
24217;DHT22;12356;49.386;8.688;2022-09-28T07:40:10;12.20;93.60
24217;DHT22;12356;49.386;8.688;2022-09-28T07:43:03;12.20;93.70
24217;DHT22;12356;49.386;8.688;2022-09-28T07:45:34;12.20;93.50
24217;DHT22;12356;49.386;8.688;2022-09-28T07:48:05;12.30;93.50
24217;DHT22;12356;49.386;8.688;2022-09-28T07:50:36;12.30;93.40
24217;DHT22;12356;49.386;8.688;2022-09-28T07:53:07;12.40;93.60
24217;DHT22;12356;49.386;8.688;2022-09-28T07:55:37;12.40;93.70
24217;DHT22;12356;49.386;8.688;2022-09-28T07:58:08;12.30;94.00
24217;DHT22;12356;49.386;8.688;2022-09-28T08:00:39;12.30;94.10
24217;DHT22;12356;49.386;8.688;2022-09-28T08:03:09;12.40;93.90
24217;DHT22;12356;49.386;8.688;2022-09-28T08:05:40;12.40;92.20
24217;DHT22;12356;49.386;8.688;2022-09-28T08:08:12;12.30;91.80
24217;DHT22;12356;49.386;8.688;2022-09-28T08:10:43;12.30;92.20
24217;DHT22;12356;49.386;8.688;2022-09-28T08:13:14;12.30;92.10
24217;DHT22;12356;49.386;8.688;2022-09-28T08:15:45;12.30;90.30
24217;DHT22;12356;49.386;8.688;2022-09-28T08:18:20;12.30;89.50
24217;DHT22;12356;49.386;8.688;2022-09-28T08:20:51;12.40;90.10
24217;DHT22;12356;49.386;8.688;2022-09-28T08:23:41;12.40;90.30
24217;DHT22;12356;49.386;8.688;2022-09-28T08:26:11;12.40;87.50
24217;DHT22;12356;49.386;8.688;2022-09-28T08:28:42;12.50;86.90
24217;DHT22;12356;49.386;8.688;2022-09-28T08:31:14;12.40;87.00
24217;DHT22;12356;49.386;8.688;2022-09-28T08:33:45;12.40;87.90
24217;DHT22;12356;49.386;8.688;2022-09-28T08:36:15;12.40;85.40
24217;DHT22;12356;49.386;8.688;2022-09-28T08:38:46;12.40;84.20
24217;DHT22;12356;49.386;8.688;2022-09-28T08:44:13;12.50;85.40
24217;DHT22;12356;49.386;8.688;2022-09-28T08:46:48;12.50;86.70
24217;DHT22;12356;49.386;8.688;2022-09-28T08:55:00;12.60;83.60
24217;DHT22;12356;49.386;8.688;2022-09-28T08:57:42;12.60;79.80
24217;DHT22;12356;49.386;8.688;2022-09-28T09:03:15;12.50;84.00
24217;DHT22;12356;49.386;8.688;2022-09-28T09:17:05;12.60;83.80
24217;DHT22;12356;49.386;8.688;2022-09-28T09:19:57;12.60;83.70
24217;DHT22;12356;49.386;8.688;2022-09-28T09:23:09;12.70;79.40
24217;DHT22;12356;49.386;8.688;2022-09-28T09:25:48;12.70;83.10
24217;DHT22;12356;49.386;8.688;2022-09-28T09:34:00;12.80;75.20
24217;DHT22;12356;49.386;8.688;2022-09-28T09:48:35;12.80;83.20
24217;DHT22;12356;49.386;8.688;2022-09-28T09:51:33;12.70;81.80
24217;DHT22;12356;49.386;8.688;2022-09-28T09:54:17;12.70;82.30
24217;DHT22;12356;49.386;8.688;2022-09-28T09:57:08;12.70;83.10
24217;DHT22;12356;49.386;8.688;2022-09-28T09:59:41;12.70;78.00
24217;DHT22;12356;49.386;8.688;2022-09-28T10:02:22;12.90;79.60
24217;DHT22;12356;49.386;8.688;2022-09-28T10:05:01;12.80;80.10
24217;DHT22;12356;49.386;8.688;2022-09-28T10:13:38;12.80;79.10
24217;DHT22;12356;49.386;8.688;2022-09-28T10:16:09;12.80;78.10
24217;DHT22;12356;49.386;8.688;2022-09-28T10:18:40;12.80;79.10
24217;DHT22;12356;49.386;8.688;2022-09-28T10:21:12;12.90;79.70
24217;DHT22;12356;49.386;8.688;2022-09-28T10:23:44;12.90;80.30
24217;DHT22;12356;49.386;8.688;2022-09-28T10:26:23;12.80;79.10
24217;DHT22;12356;49.386;8.688;2022-09-28T10:29:00;12.70;74.40
24217;DHT22;12356;49.386;8.688;2022-09-28T10:31:42;12.80;73.00
24217;DHT22;12356;49.386;8.688;2022-09-28T10:34:17;12.80;73.50
24217;DHT22;12356;49.386;8.688;2022-09-28T10:36:59;12.80;78.80
24217;DHT22;12356;49.386;8.688;2022-09-28T10:39:46;12.80;78.90
24217;DHT22;12356;49.386;8.688;2022-09-28T10:47:24;12.90;73.20
24217;DHT22;12356;49.386;8.688;2022-09-28T10:49:55;12.90;73.30
24217;DHT22;12356;49.386;8.688;2022-09-28T10:52:41;13.00;75.20
24217;DHT22;12356;49.386;8.688;2022-09-28T10:57:53;13.10;76.20
24217;DHT22;12356;49.386;8.688;2022-09-28T11:00:31;13.10;73.00
24217;DHT22;12356;49.386;8.688;2022-09-28T11:03:02;13.10;71.70
24217;DHT22;12356;49.386;8.688;2022-09-28T11:05:33;13.20;73.50
24217;DHT22;12356;49.386;8.688;2022-09-28T11:08:06;13.20;72.10
24217;DHT22;12356;49.386;8.688;2022-09-28T11:10:37;13.20;75.10
24217;DHT22;12356;49.386;8.688;2022-09-28T11:13:09;13.20;74.20
24217;DHT22;12356;49.386;8.688;2022-09-28T11:15:41;13.20;73.40
24217;DHT22;12356;49.386;8.688;2022-09-28T11:26:37;13.30;74.00
24217;DHT22;12356;49.386;8.688;2022-09-28T11:29:20;13.40;74.00
24217;DHT22;12356;49.386;8.688;2022-09-28T11:31:51;13.40;69.60
24217;DHT22;12356;49.386;8.688;2022-09-28T11:34:24;13.40;66.80
24217;DHT22;12356;49.386;8.688;2022-09-28T11:37:31;13.50;70.10
24217;DHT22;12356;49.386;8.688;2022-09-28T11:48:10;13.80;63.30
24217;DHT22;12356;49.386;8.688;2022-09-28T11:50:52;13.80;63.70
24217;DHT22;12356;49.386;8.688;2022-09-28T11:53:40;13.90;64.60
24217;DHT22;12356;49.386;8.688;2022-09-28T11:56:43;13.90;65.20
24217;DHT22;12356;49.386;8.688;2022-09-28T11:59:27;13.90;66.60
24217;DHT22;12356;49.386;8.688;2022-09-28T12:02:14;14.00;66.10
24217;DHT22;12356;49.386;8.688;2022-09-28T12:05:11;14.00;66.40
24217;DHT22;12356;49.386;8.688;2022-09-28T12:07:46;14.10;66.40
24217;DHT22;12356;49.386;8.688;2022-09-28T12:10:42;14.20;65.80
24217;DHT22;12356;49.386;8.688;2022-09-28T12:13:21;14.30;63.00
24217;DHT22;12356;49.386;8.688;2022-09-28T12:16:05;14.30;62.00
24217;DHT22;12356;49.386;8.688;2022-09-28T12:18:52;14.40;62.10
24217;DHT22;12356;49.386;8.688;2022-09-28T12:21:32;14.50;59.80
24217;DHT22;12356;49.386;8.688;2022-09-28T12:26:59;14.60;59.60
24217;DHT22;12356;49.386;8.688;2022-09-28T12:32:52;14.80;56.60
24217;DHT22;12356;49.386;8.688;2022-09-28T12:41:36;14.70;54.90
24217;DHT22;12356;49.386;8.688;2022-09-28T12:47:35;14.60;49.60
24217;DHT22;12356;49.386;8.688;2022-09-28T12:50:29;14.70;50.10
24217;DHT22;12356;49.386;8.688;2022-09-28T12:53:24;14.80;50.30
24217;DHT22;12356;49.386;8.688;2022-09-28T13:02:00;14.80;50.30
24217;DHT22;12356;49.386;8.688;2022-09-28T13:07:19;14.90;50.60
24217;DHT22;12356;49.386;8.688;2022-09-28T13:10:15;14.90;50.60
24217;DHT22;12356;49.386;8.688;2022-09-28T13:18:48;15.00;51.90
24217;DHT22;12356;49.386;8.688;2022-09-28T13:24:37;15.00;47.70
24217;DHT22;12356;49.386;8.688;2022-09-28T13:27:28;15.00;49.50
24217;DHT22;12356;49.386;8.688;2022-09-28T13:30:03;15.00;51.00
24217;DHT22;12356;49.386;8.688;2022-09-28T13:32:36;15.00;50.40
24217;DHT22;12356;49.386;8.688;2022-09-28T13:35:16;14.90;51.00
24217;DHT22;12356;49.386;8.688;2022-09-28T13:41:09;14.90;52.70
24217;DHT22;12356;49.386;8.688;2022-09-28T13:49:35;14.90;52.40
24217;DHT22;12356;49.386;8.688;2022-09-28T13:52:11;15.00;51.70
24217;DHT22;12356;49.386;8.688;2022-09-28T13:57:43;15.00;50.80
24217;DHT22;12356;49.386;8.688;2022-09-28T14:00:28;15.10;52.20
24217;DHT22;12356;49.386;8.688;2022-09-28T14:03:41;14.90;54.60
24217;DHT22;12356;49.386;8.688;2022-09-28T14:06:26;15.00;52.90
24217;DHT22;12356;49.386;8.688;2022-09-28T14:11:52;14.90;54.60
24217;DHT22;12356;49.386;8.688;2022-09-28T14:14:46;15.00;54.00
24217;DHT22;12356;49.386;8.688;2022-09-28T14:20:03;15.00;52.50
24217;DHT22;12356;49.386;8.688;2022-09-28T14:25:43;15.00;52.30
24217;DHT22;12356;49.386;8.688;2022-09-28T14:28:41;15.00;54.20
24217;DHT22;12356;49.386;8.688;2022-09-28T14:31:21;15.00;54.80
24217;DHT22;12356;49.386;8.688;2022-09-28T14:33:59;14.90;58.50
24217;DHT22;12356;49.386;8.688;2022-09-28T14:36:41;14.90;52.80
24217;DHT22;12356;49.386;8.688;2022-09-28T14:39:32;14.90;53.00
24217;DHT22;12356;49.386;8.688;2022-09-28T14:42:24;14.90;51.70
24217;DHT22;12356;49.386;8.688;2022-09-28T14:47:41;14.90;53.80
24217;DHT22;12356;49.386;8.688;2022-09-28T14:50:26;14.80;52.10
24217;DHT22;12356;49.386;8.688;2022-09-28T14:53:04;14.90;57.10
24217;DHT22;12356;49.386;8.688;2022-09-28T14:55:56;14.80;54.20
24217;DHT22;12356;49.386;8.688;2022-09-28T14:58:28;14.80;52.60
24217;DHT22;12356;49.386;8.688;2022-09-28T15:01:03;14.70;54.40
24217;DHT22;12356;49.386;8.688;2022-09-28T15:03:34;14.70;54.50
24217;DHT22;12356;49.386;8.688;2022-09-28T15:06:16;14.70;52.50
24217;DHT22;12356;49.386;8.688;2022-09-28T15:08:48;14.70;55.40
24217;DHT22;12356;49.386;8.688;2022-09-28T15:11:21;14.60;54.80
24217;DHT22;12356;49.386;8.688;2022-09-28T15:14:05;14.60;58.10
24217;DHT22;12356;49.386;8.688;2022-09-28T15:16:36;14.60;62.10
24217;DHT22;12356;49.386;8.688;2022-09-28T15:19:25;14.60;62.90
24217;DHT22;12356;49.386;8.688;2022-09-28T15:22:01;14.60;55.70
24217;DHT22;12356;49.386;8.688;2022-09-28T15:24:33;14.60;56.30
24217;DHT22;12356;49.386;8.688;2022-09-28T15:27:14;14.60;53.40
24217;DHT22;12356;49.386;8.688;2022-09-28T15:29:58;14.60;52.70
24217;DHT22;12356;49.386;8.688;2022-09-28T15:32:29;14.70;57.30
24217;DHT22;12356;49.386;8.688;2022-09-28T15:35:13;14.60;56.50
24217;DHT22;12356;49.386;8.688;2022-09-28T15:37:48;14.60;54.40
24217;DHT22;12356;49.386;8.688;2022-09-28T15:40:32;14.70;53.70
24217;DHT22;12356;49.386;8.688;2022-09-28T15:46:05;14.60;53.30
24217;DHT22;12356;49.386;8.688;2022-09-28T15:48:53;14.60;57.40
24217;DHT22;12356;49.386;8.688;2022-09-28T15:51:25;14.60;58.50
24217;DHT22;12356;49.386;8.688;2022-09-28T15:54:01;14.60;57.20
24217;DHT22;12356;49.386;8.688;2022-09-28T15:56:50;14.50;59.10
24217;DHT22;12356;49.386;8.688;2022-09-28T15:59:35;14.50;59.80
24217;DHT22;12356;49.386;8.688;2022-09-28T16:02:17;14.40;60.70
24217;DHT22;12356;49.386;8.688;2022-09-28T16:07:36;14.40;61.30
24217;DHT22;12356;49.386;8.688;2022-09-28T16:13:13;14.30;63.80
24217;DHT22;12356;49.386;8.688;2022-09-28T16:15:45;14.30;64.00
24217;DHT22;12356;49.386;8.688;2022-09-28T16:18:18;14.20;63.30
24217;DHT22;12356;49.386;8.688;2022-09-28T16:20:54;14.10;63.00
24217;DHT22;12356;49.386;8.688;2022-09-28T16:23:29;14.10;62.50
24217;DHT22;12356;49.386;8.688;2022-09-28T16:26:06;14.10;61.70
24217;DHT22;12356;49.386;8.688;2022-09-28T16:33:45;13.90;63.10
24217;DHT22;12356;49.386;8.688;2022-09-28T16:36:21;13.90;64.30
24217;DHT22;12356;49.386;8.688;2022-09-28T16:38:52;13.80;66.30
24217;DHT22;12356;49.386;8.688;2022-09-28T16:41:26;13.80;68.60
24217;DHT22;12356;49.386;8.688;2022-09-28T16:43:59;13.70;69.10
24217;DHT22;12356;49.386;8.688;2022-09-28T16:46:33;13.70;69.50
24217;DHT22;12356;49.386;8.688;2022-09-28T16:49:06;13.70;69.50
24217;DHT22;12356;49.386;8.688;2022-09-28T16:51:37;13.60;70.30
24217;DHT22;12356;49.386;8.688;2022-09-28T16:54:15;13.60;70.60
24217;DHT22;12356;49.386;8.688;2022-09-28T16:57:07;13.60;71.60
24217;DHT22;12356;49.386;8.688;2022-09-28T16:59:38;13.50;72.20
24217;DHT22;12356;49.386;8.688;2022-09-28T17:02:20;13.50;72.10
24217;DHT22;12356;49.386;8.688;2022-09-28T17:04:54;13.50;71.80
24217;DHT22;12356;49.386;8.688;2022-09-28T17:07:26;13.40;71.90
24217;DHT22;12356;49.386;8.688;2022-09-28T17:09:58;13.40;72.20
24217;DHT22;12356;49.386;8.688;2022-09-28T17:12:29;13.40;71.90
24217;DHT22;12356;49.386;8.688;2022-09-28T17:15:00;13.40;71.90
24217;DHT22;12356;49.386;8.688;2022-09-28T17:17:31;13.50;71.80
24217;DHT22;12356;49.386;8.688;2022-09-28T17:20:19;13.50;72.00
24217;DHT22;12356;49.386;8.688;2022-09-28T17:22:53;13.50;72.30
24217;DHT22;12356;49.386;8.688;2022-09-28T17:25:24;13.50;72.00
24217;DHT22;12356;49.386;8.688;2022-09-28T17:27:56;13.50;73.00
24217;DHT22;12356;49.386;8.688;2022-09-28T17:30:27;13.50;72.30
24217;DHT22;12356;49.386;8.688;2022-09-28T17:32:58;13.60;72.40
24217;DHT22;12356;49.386;8.688;2022-09-28T17:35:30;13.60;72.60
24217;DHT22;12356;49.386;8.688;2022-09-28T17:38:01;13.60;72.70
24217;DHT22;12356;49.386;8.688;2022-09-28T17:40:32;13.60;72.90
24217;DHT22;12356;49.386;8.688;2022-09-28T17:43:02;13.50;72.60
24217;DHT22;12356;49.386;8.688;2022-09-28T17:45:36;13.50;73.10
24217;DHT22;12356;49.386;8.688;2022-09-28T17:48:13;13.50;73.20
24217;DHT22;12356;49.386;8.688;2022-09-28T17:50:46;13.40;73.30
24217;DHT22;12356;49.386;8.688;2022-09-28T17:53:17;13.40;73.30
24217;DHT22;12356;49.386;8.688;2022-09-28T17:55:48;13.40;73.10
24217;DHT22;12356;49.386;8.688;2022-09-28T17:58:21;13.40;73.30
24217;DHT22;12356;49.386;8.688;2022-09-28T18:00:52;13.40;73.50
24217;DHT22;12356;49.386;8.688;2022-09-28T18:03:24;13.30;73.50
24217;DHT22;12356;49.386;8.688;2022-09-28T18:06:02;13.30;73.40
24217;DHT22;12356;49.386;8.688;2022-09-28T18:08:35;13.20;73.10
24217;DHT22;12356;49.386;8.688;2022-09-28T18:11:06;13.30;73.10
24217;DHT22;12356;49.386;8.688;2022-09-28T18:13:37;13.30;73.10
24217;DHT22;12356;49.386;8.688;2022-09-28T18:16:08;13.30;73.00
24217;DHT22;12356;49.386;8.688;2022-09-28T18:18:39;13.30;73.00
24217;DHT22;12356;49.386;8.688;2022-09-28T18:21:09;13.30;73.10
24217;DHT22;12356;49.386;8.688;2022-09-28T18:23:40;13.30;73.40
24217;DHT22;12356;49.386;8.688;2022-09-28T18:26:13;13.30;72.80
24217;DHT22;12356;49.386;8.688;2022-09-28T18:28:44;13.20;72.70
24217;DHT22;12356;49.386;8.688;2022-09-28T18:31:15;13.20;73.10
24217;DHT22;12356;49.386;8.688;2022-09-28T18:33:48;13.20;73.10
24217;DHT22;12356;49.386;8.688;2022-09-28T18:36:19;13.20;73.30
24217;DHT22;12356;49.386;8.688;2022-09-28T18:38:49;13.30;73.30
24217;DHT22;12356;49.386;8.688;2022-09-28T18:41:20;13.10;73.00
24217;DHT22;12356;49.386;8.688;2022-09-28T18:43:51;13.20;73.10
24217;DHT22;12356;49.386;8.688;2022-09-28T18:46:22;13.30;73.60
24217;DHT22;12356;49.386;8.688;2022-09-28T18:48:54;13.30;72.70
24217;DHT22;12356;49.386;8.688;2022-09-28T18:51:25;13.20;72.50
24217;DHT22;12356;49.386;8.688;2022-09-28T18:53:56;13.30;71.60
24217;DHT22;12356;49.386;8.688;2022-09-28T18:56:26;13.20;71.10
24217;DHT22;12356;49.386;8.688;2022-09-28T18:58:57;13.20;71.60
24217;DHT22;12356;49.386;8.688;2022-09-28T19:01:29;13.10;72.80
24217;DHT22;12356;49.386;8.688;2022-09-28T19:04:01;13.00;72.90
24217;DHT22;12356;49.386;8.688;2022-09-28T19:06:33;13.10;73.80
24217;DHT22;12356;49.386;8.688;2022-09-28T19:09:04;13.00;74.40
24217;DHT22;12356;49.386;8.688;2022-09-28T19:11:34;13.00;74.70
24217;DHT22;12356;49.386;8.688;2022-09-28T19:14:05;12.90;73.80
24217;DHT22;12356;49.386;8.688;2022-09-28T19:16:36;12.80;73.60
24217;DHT22;12356;49.386;8.688;2022-09-28T19:19:08;12.90;73.60